Terminal Aerodrome Forecast
Issued by NWS

Home | Current Version | Previous Version | Text Only | Print | Product List | Glossary On
Versions: 1 2 3 4 5 6 7 8 9 10 11 12 13 14 15 16 17 18 19 20 21 22 23 24 25 26 27 28 29 30 31 32 33
000
FTUS43 KDMX 211746
TAFOTM
TAF
KOTM 211746Z 2118/2218 17015KT P6SM BKN200
     FM220100 16011KT P6SM FEW025
     FM221100 17010KT P6SM SCT025 BKN120
     FM221400 18014KT P6SM SCT150=

USA.gov is the U.S. government's official web portal to all federal, state and local government web resources and services.